Decoded Metar for KRCZ (ROCKINGHAM in NC, USA) (IATA:RCZ) | Meteo·Mobile Aviation Weather
aviador You're here:

KRCZ Decoded Metar

ROCKINGHAM in NC, USA
Report Time2019-10-22 13:35:00
UTC Time2019-10-22 14:13:28
Flight Rules ifr IFR
WindCalm
Visibility9999 m
Phenomena:N/A
Clouds:Overcast 007 Hf
Expected CloudBase > 800 ft AGL from Temp-Dew spread
Ceiling700 ft
Temp19°C (ISA +5)
Dew Point17°C (88% RH)
QNH1014 hPa
Density Alt1,135 ft
Elevation358 ft
Report Wrong Elevation
Raw Report
KRCZ 221335Z AUTO 00000KT 10SM OVC007 19/17 A2993 RMK AO2
T01900169=

Extra information for KRCZ:More info

Metar Taf Metar & Taf Last 4 Metars F.Rules Stats Wind Profile Meteogram Temp Stats Airport Information Weather charts Add Link Nearby VenuesMetar ALERT Operation Metar Decoded Social comments

AIRNAV info for KRCZ